METAR AND TAF INFORMATION
METAR FOR LFPN
ADDS - METARS form results

(1328 UTC 21 March 2019)
Data provider http://aviationweather.gov/metar/data/
 
METAR text: LFPN 211300Z AUTO 06007KT 030V090 CAVOK 15/04 Q1032 NOSIG
Conditions at: LFPN (TOUSSUS LE NOBLE, FR) observed 1300 UTC 21 March 2019
Temperature: 15.0°C (59°F)
Dewpoint: 4.0°C (39°F) [RH = 48%]
Pressure (altimeter): 30.47 inches Hg (1032.0 mb)
Winds: from the ENE (60 degrees) at 8 MPH (7 knots; 3.6 m/s)
Visibility: 6 or more miles (10+ km)
Ceiling: ceiling and visibility are OK
Clouds: unknown
Weather: no significant weather observed at this time

METAR text: LFPN 211230Z AUTO 36006KT 320V060 9999 FEW038 15/06 Q1033 NOSIG
Conditions at: LFPN (TOUSSUS LE NOBLE, FR) observed 1230 UTC 21 March 2019
Temperature: 15.0°C (59°F)
Dewpoint: 6.0°C (43°F) [RH = 55%]
Pressure (altimeter): 30.50 inches Hg (1033.0 mb)
Winds: from the N (360 degrees) at 7 MPH (6 knots; 3.1 m/s)
Visibility: 6 or more miles (10+ km)
Ceiling: at least 12,000 feet AGL
Clouds: few clouds at 3800 feet AGL
Weather: no significant weather observed at this time

Forecast for: LFPN (TOUSSUS LE NOBLE, FR)
Text: TAF LFPN 211100Z 2112/2121 03005KT CAVOK
Forecast period: 1200 to 2100 UTC 21 March 2019
Forecast type: FROM: standard forecast or significant change
Winds: from the NNE (30 degrees) at 6 MPH (5 knots; 2.6 m/s)
Visibility: 6 or more miles 10+ km)
Ceiling: unknown
Clouds: missing
Weather: NSW  (no significant weather)

 AIRPORT MAP

 RUNWAY INFORMATION
Runway 07L Runway length 3609 ft Runway width 98 ft
Runway elevation 538 ft Runway displaced threshold 0 ft Runway heading 70
Runway 25R Runway length 3609 ft Runway width 98 ft
Runway elevation 503 ft Runway displaced threshold 0 ft Runway heading 250
Runway 07R Runway length 3445 ft Runway width 98 ft
Runway elevation 536 ft Runway displaced threshold 0 ft Runway heading 70
Runway 25L Runway length 3445 ft Runway width 98 ft
Runway elevation 499 ft Runway displaced threshold 0 ft Runway heading 250

 AIRPORT FREQUENCIES
Type ATIS Name ATIS Frequency 127.475 MHZ
Type GND Name GND Frequency 121.85 MHZ
Type TWR Name TWR Frequency 119.3 MHZ

 AIRPORT NEAR NAVIGATION AIDS
Type VOR Name Toussus Frequency 108250 KHZ



Powered by Virtual Airlines Manager [v2.6.2]